Time;durP1;ratioP1;P1;durP2;ratioP2;P2;SDS_P1;SDS_P2;PMS_P1;PMS_P2;Temp;Humidity;BMP_temperature;BMP_pressure;BME280_temperature;BME280_humidity;BME280_pressure;Samples;Min_cycle;Max_cycle;Signal;HPM_P1;HPM_P2
2022/05/18 00:00:27;;;;;;;;;;;24.80;96.50;;;;;;5062965;28;19935;-57
2022/05/18 00:02:56;;;;;;;;;;;24.80;96.70;;;;;;5059086;28;19943;-60
2022/05/18 00:05:23;;;;;;;;;;;24.80;96.70;;;;;;5057962;28;19928;-60
2022/05/18 00:07:50;;;;;;;;;;;24.80;96.80;;;;;;5065387;28;19928;-60
2022/05/18 00:10:18;;;;;;;;;;;24.80;96.90;;;;;;5052642;28;19951;-60
2022/05/18 00:12:46;;;;;;;;;;;24.80;96.90;;;;;;5053259;28;20425;-60
2022/05/18 00:15:14;;;;;;;;;;;24.80;97.10;;;;;;5048409;28;19935;-62
2022/05/18 00:17:41;;;;;;;;;;;24.80;97.20;;;;;;5061798;28;19929;-60
2022/05/18 00:20:09;;;;;;;;;;;24.80;97.40;;;;;;5052350;28;20392;-61
2022/05/18 00:22:54;;;;;;;;;;;24.80;97.20;;;;;;5058831;28;19935;-60
2022/05/18 00:25:25;;;;;;;;;;;24.80;97.20;;;;;;5064627;28;19948;-59
2022/05/18 00:27:52;;;;;;;;;;;24.80;97.10;;;;;;5052008;28;19935;-60
2022/05/18 00:30:20;;;;;;;;;;;24.80;97.10;;;;;;5063448;28;19936;-60
2022/05/18 00:32:48;;;;;;;;;;;24.80;97.00;;;;;;5046036;28;19936;-58
2022/05/18 00:35:16;;;;;;;;;;;24.80;97.00;;;;;;5053712;28;19935;-58
2022/05/18 00:37:43;;;;;;;;;;;24.80;97.00;;;;;;5063762;28;19928;-59
2022/05/18 00:40:11;;;;;;;;;;;24.80;97.00;;;;;;5060641;28;19933;-59
2022/05/18 00:42:39;;;;;;;;;;;24.80;97.00;;;;;;5048219;28;19929;-60
2022/05/18 00:45:06;;;;;;;;;;;24.80;97.10;;;;;;5050528;28;19929;-59
2022/05/18 00:47:34;;;;;;;;;;;24.80;97.10;;;;;;5070268;28;19947;-59
2022/05/18 00:50:24;;;;;;;;;;;24.80;97.10;;;;;;5050965;28;19929;-57
2022/05/18 00:52:55;;;;;;;;;;;24.70;96.90;;;;;;5046969;28;19925;-57
2022/05/18 00:55:24;;;;;;;;;;;24.70;96.70;;;;;;5060370;28;19936;-58
2022/05/18 00:58:04;;;;;;;;;;;24.70;96.70;;;;;;5052335;28;19932;-58
2022/05/18 01:00:33;;;;;;;;;;;24.70;96.60;;;;;;5066922;28;19925;-59
2022/05/18 01:03:04;;;;;;;;;;;24.70;96.50;;;;;;5069444;28;19924;-60
2022/05/18 01:05:34;;;;;;;;;;;24.70;96.40;;;;;;5059433;28;20312;-58
2022/05/18 01:08:01;;;;;;;;;;;24.70;96.30;;;;;;5042632;28;20471;-57
2022/05/18 01:10:28;;;;;;;;;;;24.70;96.30;;;;;;5051150;28;19936;-58
2022/05/18 01:12:56;;;;;;;;;;;24.70;96.20;;;;;;5050188;28;20427;-60
2022/05/18 01:15:24;;;;;;;;;;;24.70;96.30;;;;;;5052514;28;19928;-59
2022/05/18 01:17:54;;;;;;;;;;;24.70;96.20;;;;;;5060935;28;19932;-59
2022/05/18 01:20:22;;;;;;;;;;;24.70;96.10;;;;;;5064487;28;19924;-60
2022/05/18 01:23:04;;;;;;;;;;;24.70;96.00;;;;;;5059595;28;19929;-59
2022/05/18 01:25:31;;;;;;;;;;;24.70;95.90;;;;;;5055027;28;19958;-61
2022/05/18 01:27:59;;;;;;;;;;;24.70;96.20;;;;;;5058791;28;19929;-60
2022/05/18 01:30:27;;;;;;;;;;;24.70;96.30;;;;;;5053651;28;20323;-59
2022/05/18 01:32:56;;;;;;;;;;;24.70;96.40;;;;;;5053426;28;19929;-59
2022/05/18 01:35:26;;;;;;;;;;;24.70;96.40;;;;;;5071221;28;19935;-57
2022/05/18 01:37:57;;;;;;;;;;;24.70;96.30;;;;;;5073060;28;19935;-60
2022/05/18 01:40:33;;;;;;;;;;;24.70;96.40;;;;;;5071632;28;19928;-60
2022/05/18 01:43:06;;;;;;;;;;;24.70;96.50;;;;;;5055216;28;19932;-59
2022/05/18 01:45:33;;;;;;;;;;;24.70;96.80;;;;;;5063317;28;20399;-59
2022/05/18 01:48:14;;;;;;;;;;;24.70;96.60;;;;;;5053589;28;19928;-60
2022/05/18 01:50:42;;;;;;;;;;;24.70;96.50;;;;;;5062730;28;19929;-61
2022/05/18 01:53:09;;;;;;;;;;;24.60;96.40;;;;;;5064120;28;19928;-59
2022/05/18 01:55:37;;;;;;;;;;;24.70;96.60;;;;;;5061139;28;19947;-60
2022/05/18 01:58:04;;;;;;;;;;;24.60;96.30;;;;;;5061580;28;19936;-60
2022/05/18 02:00:32;;;;;;;;;;;24.60;96.40;;;;;;5062692;28;19929;-60
2022/05/18 02:02:59;;;;;;;;;;;24.60;96.10;;;;;;5057504;28;19929;-59
2022/05/18 02:05:26;;;;;;;;;;;24.60;96.10;;;;;;5064016;28;20703;-59
2022/05/18 02:07:53;;;;;;;;;;;24.60;96.00;;;;;;5050267;28;19929;-58
2022/05/18 02:10:21;;;;;;;;;;;24.60;96.00;;;;;;5055635;28;19924;-59
2022/05/18 02:12:48;;;;;;;;;;;24.60;96.00;;;;;;5063451;28;19924;-59
2022/05/18 02:15:15;;;;;;;;;;;24.60;95.90;;;;;;5058631;28;19932;-56
2022/05/18 02:17:43;;;;;;;;;;;24.60;95.90;;;;;;5060423;28;19929;-59
2022/05/18 02:20:11;;;;;;;;;;;24.60;96.00;;;;;;5053045;28;19936;-58
2022/05/18 02:22:38;;;;;;;;;;;24.60;95.90;;;;;;5067539;28;20295;-60
2022/05/18 02:25:05;;;;;;;;;;;24.60;95.90;;;;;;5058843;28;19952;-59
2022/05/18 02:27:32;;;;;;;;;;;24.60;95.80;;;;;;5048709;28;19935;-60
2022/05/18 02:29:59;;;;;;;;;;;24.60;95.80;;;;;;5049255;28;19937;-61
2022/05/18 02:32:26;;;;;;;;;;;24.60;95.80;;;;;;5048715;28;20376;-59
2022/05/18 02:34:53;;;;;;;;;;;24.60;95.80;;;;;;5053323;28;19951;-59
2022/05/18 02:37:20;;;;;;;;;;;24.60;95.80;;;;;;5051904;28;20308;-57
2022/05/18 02:39:47;;;;;;;;;;;24.60;96.00;;;;;;5049314;28;19939;-58
2022/05/18 02:42:15;;;;;;;;;;;24.60;96.00;;;;;;5054563;28;19928;-59
2022/05/18 02:44:42;;;;;;;;;;;24.60;95.80;;;;;;5059017;28;19928;-58
2022/05/18 02:47:09;;;;;;;;;;;24.60;95.70;;;;;;5063219;28;19928;-57
2022/05/18 02:49:36;;;;;;;;;;;24.60;95.70;;;;;;5059787;28;20324;-60
2022/05/18 02:52:03;;;;;;;;;;;24.60;95.60;;;;;;5052023;28;20295;-54
2022/05/18 02:57:19;;;;;;;;;;;24.60;95.70;;;;;;5055134;28;19968;-56
2022/05/18 02:59:46;;;;;;;;;;;24.50;95.70;;;;;;5049676;28;20324;-57
2022/05/18 03:02:13;;;;;;;;;;;24.50;95.70;;;;;;5054645;28;19944;-58
2022/05/18 03:04:41;;;;;;;;;;;24.50;95.70;;;;;;5048136;28;19928;-59
2022/05/18 03:07:08;;;;;;;;;;;24.50;95.70;;;;;;5052473;28;19934;-60
2022/05/18 03:09:35;;;;;;;;;;;24.50;95.70;;;;;;5058104;28;19935;-59
2022/05/18 03:12:03;;;;;;;;;;;24.50;95.80;;;;;;5054256;28;20316;-59
2022/05/18 03:14:30;;;;;;;;;;;24.50;96.10;;;;;;5059784;28;19931;-60
2022/05/18 03:16:58;;;;;;;;;;;24.50;95.90;;;;;;5062136;28;20315;-57
2022/05/18 03:19:25;;;;;;;;;;;24.50;95.90;;;;;;5064246;28;20307;-61
2022/05/18 03:24:38;;;;;;;;;;;24.50;95.90;;;;;;5073030;28;20386;-59
2022/05/18 03:27:06;;;;;;;;;;;24.50;95.80;;;;;;5057420;28;20381;-60
2022/05/18 03:29:33;;;;;;;;;;;24.50;95.80;;;;;;5060005;28;19939;-59
2022/05/18 03:32:01;;;;;;;;;;;24.50;95.70;;;;;;5047133;28;20297;-60
2022/05/18 03:34:28;;;;;;;;;;;24.50;95.60;;;;;;5057323;28;19931;-59
2022/05/18 03:36:55;;;;;;;;;;;24.50;95.60;;;;;;5066257;28;19931;-58
2022/05/18 03:39:22;;;;;;;;;;;24.50;95.60;;;;;;5061291;28;19929;-59
2022/05/18 03:41:49;;;;;;;;;;;24.50;95.60;;;;;;5064275;28;19929;-59
2022/05/18 03:44:19;;;;;;;;;;;24.50;95.60;;;;;;5057897;28;20340;-59
2022/05/18 03:46:46;;;;;;;;;;;24.40;95.60;;;;;;5048709;28;20323;-56
2022/05/18 03:49:13;;;;;;;;;;;24.50;95.50;;;;;;5046424;28;19925;-59
2022/05/18 03:51:40;;;;;;;;;;;24.50;95.60;;;;;;5043893;28;19929;-56
2022/05/18 03:54:07;;;;;;;;;;;24.40;95.60;;;;;;5056833;28;19932;-54
2022/05/18 03:56:35;;;;;;;;;;;24.40;95.50;;;;;;5054722;28;20447;-62
2022/05/18 03:59:02;;;;;;;;;;;24.40;95.50;;;;;;5061044;28;19935;-58
2022/05/18 04:01:29;;;;;;;;;;;24.40;95.70;;;;;;5059025;28;19936;-57
2022/05/18 04:03:57;;;;;;;;;;;24.40;95.30;;;;;;5054036;28;19929;-58
2022/05/18 04:06:24;;;;;;;;;;;24.40;95.30;;;;;;5064138;28;19935;-59
2022/05/18 04:08:52;;;;;;;;;;;24.50;95.40;;;;;;5063489;28;19925;-58
2022/05/18 04:11:19;;;;;;;;;;;24.40;95.10;;;;;;5055412;28;19936;-57
2022/05/18 04:13:46;;;;;;;;;;;24.40;94.70;;;;;;5054614;28;20363;-58
2022/05/18 04:16:13;;;;;;;;;;;24.30;92.50;;;;;;5048847;28;20399;-59
2022/05/18 04:18:41;;;;;;;;;;;24.20;92.00;;;;;;5046704;28;19929;-59
2022/05/18 04:21:08;;;;;;;;;;;24.10;92.30;;;;;;5063911;28;19932;-60
2022/05/18 04:23:39;;;;;;;;;;;24.10;92.90;;;;;;5056677;28;20415;-60
2022/05/18 04:26:10;;;;;;;;;;;24.10;92.40;;;;;;5059120;28;19929;-59
2022/05/18 04:28:37;;;;;;;;;;;24.10;92.70;;;;;;5051223;28;19929;-58
2022/05/18 04:31:04;;;;;;;;;;;24.00;92.40;;;;;;5048676;28;19929;-59
2022/05/18 04:33:31;;;;;;;;;;;24.10;92.30;;;;;;5059033;28;19929;-59
2022/05/18 04:36:02;;;;;;;;;;;24.10;92.10;;;;;;5062154;28;19938;-59
2022/05/18 04:38:30;;;;;;;;;;;24.10;92.30;;;;;;5062075;28;19944;-57
2022/05/18 04:40:57;;;;;;;;;;;24.10;92.50;;;;;;5052883;28;19984;-61
2022/05/18 04:43:24;;;;;;;;;;;24.20;91.80;;;;;;5055788;28;19939;-61
2022/05/18 04:45:52;;;;;;;;;;;24.20;92.10;;;;;;5063355;28;19928;-59
2022/05/18 04:48:20;;;;;;;;;;;24.20;92.20;;;;;;5057207;28;20426;-59
2022/05/18 04:50:50;;;;;;;;;;;24.20;92.10;;;;;;5045618;28;19936;-59
2022/05/18 04:53:17;;;;;;;;;;;24.10;92.00;;;;;;5049759;28;19936;-58
2022/05/18 04:55:44;;;;;;;;;;;24.10;91.90;;;;;;5051913;28;19951;-59
2022/05/18 04:58:12;;;;;;;;;;;24.10;92.00;;;;;;5049563;28;19930;-60
2022/05/18 05:00:40;;;;;;;;;;;24.10;91.90;;;;;;5054872;28;20375;-60
2022/05/18 05:03:07;;;;;;;;;;;24.00;91.80;;;;;;5048229;28;19936;-58
2022/05/18 05:05:35;;;;;;;;;;;24.00;91.80;;;;;;5065396;28;20675;-58
2022/05/18 05:08:02;;;;;;;;;;;24.00;91.80;;;;;;5053986;28;19928;-61
2022/05/18 05:10:29;;;;;;;;;;;23.90;91.80;;;;;;5046422;28;19933;-63
2022/05/18 05:12:56;;;;;;;;;;;24.00;92.00;;;;;;5045362;28;19928;-63
2022/05/18 05:15:23;;;;;;;;;;;24.10;92.20;;;;;;5053639;28;19936;-63
2022/05/18 05:17:52;;;;;;;;;;;24.10;92.20;;;;;;5057392;28;19936;-63
2022/05/18 05:20:19;;;;;;;;;;;24.20;92.10;;;;;;5056152;28;19939;-63
2022/05/18 05:22:46;;;;;;;;;;;24.20;92.30;;;;;;5061595;28;19933;-63
2022/05/18 05:25:14;;;;;;;;;;;24.20;92.40;;;;;;5062643;28;19936;-63
2022/05/18 05:27:41;;;;;;;;;;;24.20;92.40;;;;;;5064597;28;20926;-65
2022/05/18 05:30:09;;;;;;;;;;;24.20;92.50;;;;;;5063081;28;19933;-62
2022/05/18 05:32:36;;;;;;;;;;;24.20;92.60;;;;;;5066535;28;19932;-60
2022/05/18 05:35:04;;;;;;;;;;;24.20;92.60;;;;;;5063501;28;19944;-60
2022/05/18 05:37:31;;;;;;;;;;;24.20;92.60;;;;;;5028876;28;19948;-61
2022/05/18 05:39:58;;;;;;;;;;;24.30;92.80;;;;;;5064606;28;19928;-61
2022/05/18 05:42:26;;;;;;;;;;;24.30;92.80;;;;;;5073149;28;19924;-60
2022/05/18 05:44:53;;;;;;;;;;;24.30;92.90;;;;;;5071303;28;19928;-62
2022/05/18 05:47:20;;;;;;;;;;;24.30;93.00;;;;;;5068995;28;19929;-61
2022/05/18 05:49:47;;;;;;;;;;;24.30;93.00;;;;;;5055463;28;19936;-62
2022/05/18 05:52:15;;;;;;;;;;;24.30;93.00;;;;;;5055868;28;20020;-61
2022/05/18 05:54:43;;;;;;;;;;;24.30;93.10;;;;;;5054734;28;19924;-61
2022/05/18 05:57:11;;;;;;;;;;;24.30;93.10;;;;;;5060545;28;20472;-62
2022/05/18 05:59:38;;;;;;;;;;;24.30;93.20;;;;;;5054463;28;20311;-61
2022/05/18 06:02:08;;;;;;;;;;;24.30;93.20;;;;;;5057143;28;20248;-62
2022/05/18 06:04:36;;;;;;;;;;;24.30;93.40;;;;;;5061169;28;19928;-63
2022/05/18 06:07:04;;;;;;;;;;;24.40;93.50;;;;;;5059376;28;19928;-59
2022/05/18 06:09:31;;;;;;;;;;;24.40;93.50;;;;;;5066267;28;19928;-60
2022/05/18 06:11:58;;;;;;;;;;;24.40;93.60;;;;;;5061141;28;19929;-62
2022/05/18 06:14:25;;;;;;;;;;;24.40;93.70;;;;;;5066322;28;20311;-63
2022/05/18 06:16:52;;;;;;;;;;;24.40;93.40;;;;;;5057955;28;19951;-62
2022/05/18 06:19:20;;;;;;;;;;;24.40;93.60;;;;;;5061428;28;19941;-59
2022/05/18 06:21:49;;;;;;;;;;;24.30;93.00;;;;;;5063877;28;20311;-58
2022/05/18 06:24:18;;;;;;;;;;;24.20;93.40;;;;;;5060820;28;20315;-58
2022/05/18 06:26:45;;;;;;;;;;;24.10;93.30;;;;;;5042556;28;20416;-61
2022/05/18 06:29:12;;;;;;;;;;;24.00;93.30;;;;;;5060020;28;19951;-60
2022/05/18 06:31:39;;;;;;;;;;;24.00;93.30;;;;;;5063636;28;20000;-59
2022/05/18 06:34:07;;;;;;;;;;;23.90;93.20;;;;;;5060280;28;19928;-60
2022/05/18 06:36:34;;;;;;;;;;;23.90;93.10;;;;;;5060862;28;19933;-62
2022/05/18 06:39:02;;;;;;;;;;;24.00;93.20;;;;;;5047554;28;19939;-59
2022/05/18 06:41:33;;;;;;;;;;;24.00;93.20;;;;;;5064761;28;19928;-60
2022/05/18 06:44:02;;;;;;;;;;;24.20;93.10;;;;;;5060907;28;19935;-58
2022/05/18 06:46:31;;;;;;;;;;;24.20;93.20;;;;;;5063073;28;19947;-59
2022/05/18 06:48:59;;;;;;;;;;;24.30;93.30;;;;;;5061708;28;19951;-59
2022/05/18 06:51:28;;;;;;;;;;;24.30;93.60;;;;;;5062470;28;19929;-59
2022/05/18 06:53:56;;;;;;;;;;;24.30;93.50;;;;;;5058448;28;19940;-59
2022/05/18 06:56:27;;;;;;;;;;;24.30;93.70;;;;;;5062363;28;19929;-59
2022/05/18 06:58:55;;;;;;;;;;;24.30;93.60;;;;;;5067054;28;19928;-60
2022/05/18 07:01:23;;;;;;;;;;;24.30;94.70;;;;;;5064626;28;19928;-60
2022/05/18 07:03:50;;;;;;;;;;;24.30;96.10;;;;;;5058783;28;19933;-61
2022/05/18 07:06:26;;;;;;;;;;;24.30;96.80;;;;;;5029637;28;19929;-60
2022/05/18 07:08:55;;;;;;;;;;;24.30;97.40;;;;;;5062759;28;19928;-61
2022/05/18 07:11:23;;;;;;;;;;;24.30;97.90;;;;;;5061230;28;20284;-62
2022/05/18 07:13:54;;;;;;;;;;;24.30;98.10;;;;;;5051880;28;19932;-61
2022/05/18 07:16:22;;;;;;;;;;;24.30;97.50;;;;;;5061669;28;19932;-61
2022/05/18 07:18:50;;;;;;;;;;;24.30;97.80;;;;;;5062147;28;19935;-63
2022/05/18 07:21:17;;;;;;;;;;;24.30;97.10;;;;;;5066473;28;19928;-63
2022/05/18 07:23:44;;;;;;;;;;;24.30;96.30;;;;;;5063062;28;19928;-63
2022/05/18 07:26:12;;;;;;;;;;;24.30;96.70;;;;;;5063745;28;19928;-65
2022/05/18 07:28:39;;;;;;;;;;;24.30;96.70;;;;;;5045898;28;19928;-63
2022/05/18 07:31:07;;;;;;;;;;;24.30;96.50;;;;;;5056940;28;19928;-61
2022/05/18 07:33:35;;;;;;;;;;;24.30;96.20;;;;;;5062538;28;19929;-62
2022/05/18 07:36:03;;;;;;;;;;;24.30;95.60;;;;;;5057286;28;19939;-62
2022/05/18 07:38:31;;;;;;;;;;;24.30;95.30;;;;;;5058760;28;19932;-64
2022/05/18 07:41:10;;;;;;;;;;;24.20;95.40;;;;;;5060421;28;19925;-59
2022/05/18 07:43:37;;;;;;;;;;;24.20;95.30;;;;;;5056340;28;19948;-60
2022/05/18 07:46:05;;;;;;;;;;;24.30;95.30;;;;;;5062367;28;20315;-59
2022/05/18 07:48:33;;;;;;;;;;;24.30;94.50;;;;;;5049246;28;20011;-61
2022/05/18 07:51:02;;;;;;;;;;;24.40;94.70;;;;;;5053767;28;19933;-61
2022/05/18 07:53:29;;;;;;;;;;;24.40;94.30;;;;;;5065363;28;19939;-63
2022/05/18 07:55:56;;;;;;;;;;;24.40;93.00;;;;;;5069344;28;19928;-63
2022/05/18 07:58:23;;;;;;;;;;;24.40;93.90;;;;;;5047970;28;19936;-62
2022/05/18 08:00:50;;;;;;;;;;;24.40;93.80;;;;;;5068523;28;20422;-61
2022/05/18 08:03:18;;;;;;;;;;;24.40;94.00;;;;;;5065073;28;19928;-61
2022/05/18 08:05:46;;;;;;;;;;;24.40;93.40;;;;;;5053912;28;20331;-61
2022/05/18 08:08:15;;;;;;;;;;;24.40;92.70;;;;;;5061817;28;19928;-60
2022/05/18 08:16:14;;;;;;;;;;;24.50;92.70;;;;;;5058825;28;20396;-64
2022/05/18 08:18:42;;;;;;;;;;;24.50;92.60;;;;;;5063004;28;19928;-61
2022/05/18 08:21:09;;;;;;;;;;;24.50;92.60;;;;;;5056802;28;19929;-61
2022/05/18 08:23:36;;;;;;;;;;;24.50;92.20;;;;;;5055888;28;19936;-61
2022/05/18 08:26:04;;;;;;;;;;;24.50;92.00;;;;;;5050795;28;19929;-65
2022/05/18 08:28:31;;;;;;;;;;;24.50;91.60;;;;;;5055385;28;19940;-62
2022/05/18 08:30:59;;;;;;;;;;;24.60;91.60;;;;;;5057172;28;19928;-60
2022/05/18 08:33:28;;;;;;;;;;;24.60;91.10;;;;;;5045952;28;19929;-60
2022/05/18 08:35:55;;;;;;;;;;;24.50;90.90;;;;;;5058823;28;19936;-62
2022/05/18 08:38:22;;;;;;;;;;;24.60;90.80;;;;;;5061771;28;19928;-62
2022/05/18 08:40:52;;;;;;;;;;;24.50;90.80;;;;;;5062052;28;20003;-61
2022/05/18 08:43:22;;;;;;;;;;;24.60;90.80;;;;;;5059782;28;19943;-61
2022/05/18 08:45:52;;;;;;;;;;;24.60;90.40;;;;;;5062926;28;19956;-62
2022/05/18 08:48:40;;;;;;;;;;;24.60;90.50;;;;;;5046224;28;19928;-63
2022/05/18 08:51:30;;;;;;;;;;;24.60;90.40;;;;;;5057561;28;19943;-62
2022/05/18 08:54:13;;;;;;;;;;;24.60;90.90;;;;;;5059340;28;19935;-62
2022/05/18 08:56:42;;;;;;;;;;;24.60;90.90;;;;;;5059073;28;20042;-62
2022/05/18 08:59:16;;;;;;;;;;;24.50;90.90;;;;;;5064663;28;19965;-63
2022/05/18 09:01:46;;;;;;;;;;;24.50;90.90;;;;;;5067719;28;19935;-62
2022/05/18 09:04:20;;;;;;;;;;;24.40;91.40;;;;;;5063559;28;20383;-62
2022/05/18 09:07:07;;;;;;;;;;;24.40;91.10;;;;;;5067459;28;19935;-61
2022/05/18 09:12:25;;;;;;;;;;;24.40;90.80;;;;;;5066381;28;19929;-61
2022/05/18 09:14:52;;;;;;;;;;;24.40;90.90;;;;;;5071286;28;19932;-62
2022/05/18 09:17:24;;;;;;;;;;;24.40;91.20;;;;;;5060572;28;19928;-62
2022/05/18 09:20:13;;;;;;;;;;;24.30;90.60;;;;;;5063620;28;19951;-62
2022/05/18 09:22:53;;;;;;;;;;;24.40;90.90;;;;;;5053924;28;20015;-61
2022/05/18 09:25:23;;;;;;;;;;;24.40;91.10;;;;;;5056546;28;20004;-62
2022/05/18 09:28:03;;;;;;;;;;;24.40;90.50;;;;;;5066606;28;19954;-60
2022/05/18 09:30:42;;;;;;;;;;;24.40;90.30;;;;;;5060668;28;19928;-61
2022/05/18 09:33:09;;;;;;;;;;;24.50;91.10;;;;;;5063009;28;19955;-60
2022/05/18 09:35:39;;;;;;;;;;;24.50;90.60;;;;;;5065078;28;19935;-58
2022/05/18 09:38:10;;;;;;;;;;;24.50;90.80;;;;;;5064539;28;19932;-59
2022/05/18 09:40:39;;;;;;;;;;;24.50;90.70;;;;;;5063060;28;19999;-59
2022/05/18 09:43:10;;;;;;;;;;;24.50;90.60;;;;;;5047757;28;19928;-60
2022/05/18 09:45:41;;;;;;;;;;;24.50;90.90;;;;;;5066149;28;19931;-62
2022/05/18 09:48:22;;;;;;;;;;;24.60;91.30;;;;;;5062729;28;19929;-59
2022/05/18 09:50:50;;;;;;;;;;;24.60;91.40;;;;;;5034481;28;19935;-59
2022/05/18 09:53:18;;;;;;;;;;;24.60;91.60;;;;;;5066380;28;19928;-57
2022/05/18 09:55:46;;;;;;;;;;;24.70;91.80;;;;;;5063592;28;20039;-59
2022/05/18 09:58:29;;;;;;;;;;;24.70;92.00;;;;;;5057954;28;19935;-60
2022/05/18 10:09:37;;;;;;;;;;;24.80;92.70;;;;;;5059551;28;19948;-60
2022/05/18 10:12:16;;;;;;;;;;;24.80;92.90;;;;;;5062504;28;19929;-60
2022/05/18 10:14:46;;;;;;;;;;;24.80;93.00;;;;;;5061998;28;19928;-59
2022/05/18 10:17:13;;;;;;;;;;;24.80;93.20;;;;;;5049626;28;19944;-58
2022/05/18 10:19:46;;;;;;;;;;;24.90;93.40;;;;;;5063669;28;20420;-56
2022/05/18 10:22:22;;;;;;;;;;;24.90;93.50;;;;;;5060155;28;19939;-61
2022/05/18 10:24:52;;;;;;;;;;;24.90;93.50;;;;;;5065161;28;20413;-61
2022/05/18 10:27:30;;;;;;;;;;;24.90;93.70;;;;;;5064292;28;19929;-61
2022/05/18 10:30:13;;;;;;;;;;;24.90;93.90;;;;;;5063626;28;20319;-61
2022/05/18 10:32:59;;;;;;;;;;;25.00;94.10;;;;;;5058062;28;20428;-61
2022/05/18 10:35:41;;;;;;;;;;;24.90;94.20;;;;;;5056156;28;20355;-63
2022/05/18 10:38:21;;;;;;;;;;;24.90;94.10;;;;;;5060559;28;19928;-65
2022/05/18 10:40:48;;;;;;;;;;;24.80;94.20;;;;;;5053971;28;19924;-61
2022/05/18 10:43:33;;;;;;;;;;;24.80;94.50;;;;;;5055588;28;19928;-61
2022/05/18 10:46:17;;;;;;;;;;;24.90;95.00;;;;;;5056426;28;21070;-60
2022/05/18 10:49:18;;;;;;;;;;;24.90;95.20;;;;;;5057419;28;19943;-62
2022/05/18 10:51:45;;;;;;;;;;;24.90;95.40;;;;;;5021721;28;20531;-61
2022/05/18 10:54:16;;;;;;;;;;;24.90;95.60;;;;;;5055690;28;19932;-61
2022/05/18 10:56:43;;;;;;;;;;;24.90;95.90;;;;;;5058459;28;19947;-59
2022/05/18 10:59:20;;;;;;;;;;;24.90;96.00;;;;;;5056273;28;20023;-61
2022/05/18 11:01:54;;;;;;;;;;;24.90;96.60;;;;;;5058308;28;19929;-60
2022/05/18 11:04:31;;;;;;;;;;;25.00;97.00;;;;;;5039219;28;19929;-61
2022/05/18 11:06:58;;;;;;;;;;;25.00;97.00;;;;;;5056991;28;19928;-59
2022/05/18 11:09:28;;;;;;;;;;;25.00;96.90;;;;;;5060907;28;20429;-61
2022/05/18 11:12:04;;;;;;;;;;;24.90;97.00;;;;;;5055734;28;20652;-61
2022/05/18 11:14:46;;;;;;;;;;;24.90;96.90;;;;;;5066203;28;19924;-63
2022/05/18 11:17:13;;;;;;;;;;;24.90;96.90;;;;;;5063060;28;19928;-61
2022/05/18 11:19:50;;;;;;;;;;;24.90;97.40;;;;;;5064151;28;20393;-62
2022/05/18 11:22:33;;;;;;;;;;;24.90;97.70;;;;;;5064863;28;20686;-61
2022/05/18 11:25:28;;;;;;;;;;;25.00;97.60;;;;;;5069930;28;19951;-59
2022/05/18 11:28:18;;;;;;;;;;;25.00;98.20;;;;;;5065577;28;20443;-61
2022/05/18 11:31:02;;;;;;;;;;;25.00;98.50;;;;;;5061933;28;19928;-58
2022/05/18 11:33:50;;;;;;;;;;;25.00;98.70;;;;;;5054435;28;19933;-59
2022/05/18 11:36:27;;;;;;;;;;;25.00;98.70;;;;;;5054196;28;19929;-62
2022/05/18 11:39:16;;;;;;;;;;;25.00;99.10;;;;;;5060123;28;19935;-61
2022/05/18 11:41:49;;;;;;;;;;;25.00;99.40;;;;;;5049078;28;19936;-62
2022/05/18 11:44:41;;;;;;;;;;;25.00;99.60;;;;;;5045326;28;19972;-60
2022/05/18 11:47:08;;;;;;;;;;;25.00;99.60;;;;;;5060394;28;20458;-60
2022/05/18 11:49:44;;;;;;;;;;;25.10;99.60;;;;;;5055395;28;19943;-60
2022/05/18 11:52:29;;;;;;;;;;;25.10;99.80;;;;;;5050769;28;19932;-60
2022/05/18 11:54:59;;;;;;;;;;;25.10;99.30;;;;;;5054923;28;19943;-60
2022/05/18 11:57:44;;;;;;;;;;;25.00;99.10;;;;;;5058245;28;20423;-61
2022/05/18 12:00:46;;;;;;;;;;;25.00;98.90;;;;;;5056302;28;20418;-60
2022/05/18 12:03:32;;;;;;;;;;;25.00;98.80;;;;;;5057466;28;19928;-60
2022/05/18 12:06:22;;;;;;;;;;;25.00;98.60;;;;;;5060574;28;20374;-59
2022/05/18 12:09:01;;;;;;;;;;;25.00;98.40;;;;;;5041336;28;19939;-60
2022/05/18 12:11:34;;;;;;;;;;;25.00;98.10;;;;;;5056545;28;19925;-60
2022/05/18 12:14:11;;;;;;;;;;;25.00;97.90;;;;;;5065171;28;19929;-58
2022/05/18 12:16:56;;;;;;;;;;;25.00;97.70;;;;;;5058178;28;19928;-56
2022/05/18 12:19:39;;;;;;;;;;;25.00;97.50;;;;;;5045979;28;20550;-59
2022/05/18 12:22:11;;;;;;;;;;;25.00;97.30;;;;;;5058080;28;19929;-59
2022/05/18 12:24:39;;;;;;;;;;;25.00;97.10;;;;;;5053814;28;19935;-62
2022/05/18 12:27:08;;;;;;;;;;;25.00;96.90;;;;;;5064737;28;19929;-60
2022/05/18 12:29:35;;;;;;;;;;;25.00;96.80;;;;;;5067209;28;19928;-60
2022/05/18 12:32:08;;;;;;;;;;;25.00;96.70;;;;;;5054176;28;19935;-60
2022/05/18 12:34:35;;;;;;;;;;;25.00;96.50;;;;;;5056116;28;19928;-60
2022/05/18 12:37:22;;;;;;;;;;;25.00;96.40;;;;;;5043861;28;19929;-60
2022/05/18 12:40:02;;;;;;;;;;;25.00;96.30;;;;;;5064874;28;19935;-59
2022/05/18 12:42:40;;;;;;;;;;;25.00;96.10;;;;;;5066751;28;20403;-61
2022/05/18 12:45:21;;;;;;;;;;;25.00;96.00;;;;;;5055711;28;20174;-60
2022/05/18 12:47:52;;;;;;;;;;;25.00;96.00;;;;;;5061135;28;20388;-60
2022/05/18 12:50:29;;;;;;;;;;;25.00;95.90;;;;;;5059451;28;19928;-58
2022/05/18 12:52:57;;;;;;;;;;;25.00;95.80;;;;;;5062883;28;20398;-61
2022/05/18 12:55:29;;;;;;;;;;;25.10;95.80;;;;;;5062879;28;20406;-61
2022/05/18 12:58:08;;;;;;;;;;;25.10;95.70;;;;;;5063454;28;20012;-60
2022/05/18 13:00:38;;;;;;;;;;;25.10;95.90;;;;;;5059498;28;20380;-60
2022/05/18 13:03:08;;;;;;;;;;;25.20;97.10;;;;;;5047643;28;20435;-62
2022/05/18 13:05:39;;;;;;;;;;;25.20;97.10;;;;;;5062955;28;19928;-61
2022/05/18 13:08:37;;;;;;;;;;;25.20;97.20;;;;;;5067378;28;19935;-61
2022/05/18 13:11:13;;;;;;;;;;;25.20;98.20;;;;;;5043066;28;19932;-61
2022/05/18 13:13:55;;;;;;;;;;;25.30;97.70;;;;;;5067037;28;20165;-61
2022/05/18 13:16:37;;;;;;;;;;;25.40;97.60;;;;;;5066071;28;19932;-60
2022/05/18 13:19:18;;;;;;;;;;;25.40;97.60;;;;;;5061751;28;19929;-59
2022/05/18 13:21:52;;;;;;;;;;;25.40;97.60;;;;;;5063720;28;19944;-61
2022/05/18 13:24:38;;;;;;;;;;;25.50;97.70;;;;;;5066597;28;19931;-60
2022/05/18 13:27:09;;;;;;;;;;;25.50;97.90;;;;;;5064462;28;20387;-62
2022/05/18 13:29:37;;;;;;;;;;;25.50;98.00;;;;;;5068824;28;19929;-61
2022/05/18 13:32:06;;;;;;;;;;;25.60;98.00;;;;;;5067434;28;19932;-60
2022/05/18 13:34:39;;;;;;;;;;;25.60;97.90;;;;;;5064183;28;19939;-59
2022/05/18 13:37:07;;;;;;;;;;;25.60;97.80;;;;;;5065390;28;19940;-62
2022/05/18 13:39:36;;;;;;;;;;;25.70;97.70;;;;;;5063365;28;19940;-60
2022/05/18 13:42:05;;;;;;;;;;;25.70;97.70;;;;;;5059440;28;20364;-64
2022/05/18 13:44:34;;;;;;;;;;;25.70;97.60;;;;;;5060946;28;19967;-64
2022/05/18 13:47:01;;;;;;;;;;;25.80;97.60;;;;;;5067950;28;19928;-66
2022/05/18 13:49:30;;;;;;;;;;;25.80;97.60;;;;;;5069913;28;19936;-65
2022/05/18 13:52:02;;;;;;;;;;;25.80;97.50;;;;;;5067049;28;19931;-65
2022/05/18 13:54:31;;;;;;;;;;;25.90;97.40;;;;;;5064185;28;19935;-66
2022/05/18 13:57:00;;;;;;;;;;;25.90;97.50;;;;;;5065104;28;19930;-65
2022/05/18 13:59:32;;;;;;;;;;;26.00;97.70;;;;;;5061297;28;19924;-64
2022/05/18 14:02:01;;;;;;;;;;;26.00;97.60;;;;;;5060971;28;20385;-61
2022/05/18 14:04:34;;;;;;;;;;;26.00;97.40;;;;;;5053466;28;20404;-62
2022/05/18 14:07:22;;;;;;;;;;;26.00;97.40;;;;;;5056276;28;20377;-60
2022/05/18 14:10:11;;;;;;;;;;;26.00;97.20;;;;;;5064152;28;19928;-61
2022/05/18 14:12:45;;;;;;;;;;;26.10;97.10;;;;;;5057531;28;19944;-60
2022/05/18 14:15:14;;;;;;;;;;;26.10;97.10;;;;;;5057641;28;20308;-60
2022/05/18 14:17:46;;;;;;;;;;;26.20;97.00;;;;;;5055352;28;20420;-60
2022/05/18 14:20:29;;;;;;;;;;;26.20;96.90;;;;;;5057632;28;19932;-61
2022/05/18 14:23:22;;;;;;;;;;;26.20;96.70;;;;;;5040665;28;19951;-60
2022/05/18 14:25:53;;;;;;;;;;;26.20;96.40;;;;;;5059674;28;20419;-60
2022/05/18 14:28:25;;;;;;;;;;;26.30;96.20;;;;;;5050074;28;19928;-61
2022/05/18 14:30:53;;;;;;;;;;;26.30;96.20;;;;;;5061104;28;19932;-58
2022/05/18 14:33:37;;;;;;;;;;;26.40;96.50;;;;;;5059357;28;20326;-61
2022/05/18 14:36:07;;;;;;;;;;;26.40;96.70;;;;;;5065710;28;19935;-61
2022/05/18 14:38:37;;;;;;;;;;;26.40;96.50;;;;;;5057653;28;19932;-60
2022/05/18 14:41:07;;;;;;;;;;;26.40;96.20;;;;;;5062784;28;20391;-62
2022/05/18 14:43:34;;;;;;;;;;;26.50;95.90;;;;;;5063791;28;19935;-60
2022/05/18 14:46:04;;;;;;;;;;;26.60;95.50;;;;;;5059551;28;19935;-62
2022/05/18 14:48:42;;;;;;;;;;;26.60;95.40;;;;;;5067223;28;19932;-60
2022/05/18 14:51:29;;;;;;;;;;;26.60;95.40;;;;;;5059979;28;19932;-61
2022/05/18 14:53:58;;;;;;;;;;;26.60;95.20;;;;;;5061052;28;19928;-61
2022/05/18 14:56:29;;;;;;;;;;;26.70;95.00;;;;;;5062941;28;20288;-60
2022/05/18 14:59:01;;;;;;;;;;;26.70;95.10;;;;;;5067144;28;20008;-61
2022/05/18 15:01:45;;;;;;;;;;;26.80;94.90;;;;;;5063316;28;20379;-61